Time;durP1;ratioP1;P1;durP2;ratioP2;P2;SDS_P1;SDS_P2;PMS_P1;PMS_P2;Temp;Humidity;BMP_temperature;BMP_pressure;BME280_temperature;BME280_humidity;BME280_pressure;Samples;Min_cycle;Max_cycle;Signal;HPM_P1;HPM_P2
2022/10/16 00:01:18;;;;;;;18.10;13.00;;;;;;;13.48;72.76;98588.90;106602;1310;22753;-68
2022/10/16 00:03:45;;;;;;;14.70;12.70;;;;;;;13.48;72.59;98586.70;106627;1310;22115;-68
2022/10/16 00:06:13;;;;;;;19.10;13.30;;;;;;;13.48;72.53;98587.20;106768;1296;138348;-68
2022/10/16 00:08:40;;;;;;;14.80;12.40;;;;;;;13.49;72.70;98590.88;106770;1298;22762;-68
2022/10/16 00:11:13;;;;;;;19.90;12.70;;;;;;;13.50;72.84;98588.15;106429;1310;138624;-68
2022/10/16 00:13:42;;;;;;;21.20;13.30;;;;;;;13.50;72.91;98587.06;106593;1310;22863;-68
2022/10/16 00:16:11;;;;;;;18.50;12.60;;;;;;;13.51;72.89;98593.06;106590;1296;22097;-68
2022/10/16 00:18:38;;;;;;;16.60;12.60;;;;;;;13.50;72.68;98596.52;106520;1310;138472;-68
2022/10/16 00:21:08;;;;;;;18.50;12.30;;;;;;;13.51;72.83;98603.74;106677;1310;22328;-68
2022/10/16 00:23:35;;;;;;;16.40;12.30;;;;;;;13.51;73.12;98605.65;106532;1310;138556;-68
2022/10/16 00:26:06;;;;;;;19.70;13.70;;;;;;;13.48;73.59;98610.73;106561;1295;22119;-69
2022/10/16 00:28:34;;;;;;;21.10;14.80;;;;;;;13.45;73.70;98606.20;106401;1313;22088;-68
2022/10/16 00:31:06;;;;;;;20.20;13.90;;;;;;;13.43;73.58;98613.59;106406;1313;138618;-68
2022/10/16 00:33:33;;;;;;;19.50;13.70;;;;;;;13.42;73.68;98609.41;106546;1310;22225;-68
2022/10/16 00:36:02;;;;;;;15.80;13.00;;;;;;;13.41;74.03;98614.11;106706;1303;138437;-68
2022/10/16 00:38:29;;;;;;;18.10;13.40;;;;;;;13.41;74.22;98610.61;106691;1297;22045;-68
2022/10/16 00:40:56;;;;;;;19.40;12.20;;;;;;;13.41;74.43;98614.23;106542;1309;138631;-68
2022/10/16 00:43:50;;;;;;;19.50;14.00;;;;;;;13.40;74.70;98620.90;106649;1310;22107;-68
2022/10/16 00:46:22;;;;;;;18.70;14.00;;;;;;;13.40;74.65;98623.29;106671;1309;22712;-68
2022/10/16 00:48:51;;;;;;;17.40;12.70;;;;;;;13.40;74.31;98620.06;106438;1310;138477;-68
2022/10/16 00:51:22;;;;;;;17.50;12.40;;;;;;;13.40;74.55;98621.66;106557;1305;22120;-68
2022/10/16 00:53:50;;;;;;;17.90;12.80;;;;;;;13.39;74.58;98622.96;106719;1297;138380;-68
2022/10/16 00:56:18;;;;;;;18.00;12.90;;;;;;;13.39;74.90;98623.06;106493;1310;22122;-68
2022/10/16 00:58:45;;;;;;;18.20;13.20;;;;;;;13.38;75.01;98622.13;106535;1296;22118;-68
2022/10/16 01:01:12;;;;;;;19.60;13.80;;;;;;;13.36;75.08;98619.48;106456;1311;138946;-68
2022/10/16 01:03:39;;;;;;;20.90;13.30;;;;;;;13.35;75.10;98618.48;106553;1310;22166;-68
2022/10/16 01:06:32;;;;;;;21.80;15.30;;;;;;;13.34;75.14;98625.31;106429;1310;138367;-69
2022/10/16 01:09:09;;;;;;;24.50;15.00;;;;;;;13.32;74.97;98629.62;105992;1301;22307;-68
2022/10/16 01:11:45;;;;;;;19.20;13.40;;;;;;;13.32;75.19;98625.89;106331;1300;138782;-68
2022/10/16 01:14:24;;;;;;;21.30;13.40;;;;;;;13.31;75.31;98624.61;106043;1316;22116;-68
2022/10/16 01:17:02;;;;;;;23.50;14.80;;;;;;;13.28;75.77;98628.40;105861;1317;138636;-68
2022/10/16 01:19:35;;;;;;;21.90;14.20;;;;;;;13.28;75.73;98631.70;105892;1318;22178;-68
2022/10/16 01:22:03;;;;;;;22.30;14.80;;;;;;;13.26;75.82;98631.55;106353;1286;22314;-69
2022/10/16 01:24:39;;;;;;;19.90;14.50;;;;;;;13.23;75.93;98628.73;105785;1318;138685;-68
2022/10/16 01:27:16;;;;;;;19.90;14.60;;;;;;;13.22;75.94;98627.30;105919;1317;22856;-69
2022/10/16 01:29:55;;;;;;;21.50;14.20;;;;;;;13.20;76.06;98634.02;105902;1310;142011;-68
2022/10/16 01:32:36;;;;;;;19.00;15.10;;;;;;;13.19;76.15;98628.26;106002;1317;22141;-68
2022/10/16 01:35:13;;;;;;;21.80;14.10;;;;;;;13.17;76.56;98627.25;105914;1309;138592;-68
2022/10/16 01:37:56;;;;;;;22.90;15.60;;;;;;;13.14;76.68;98637.66;106419;1308;23632;-68
2022/10/16 01:40:26;;;;;;;22.10;14.70;;;;;;;13.10;76.41;98636.42;106449;1308;22134;-68
2022/10/16 01:43:00;;;;;;;20.50;14.80;;;;;;;13.09;76.51;98632.70;105876;1317;138383;-68
2022/10/16 01:45:29;;;;;;;23.20;15.10;;;;;;;13.10;76.61;98631.34;106066;1316;22241;-68
2022/10/16 01:47:57;;;;;;;;;;;;;;;13.11;76.67;98633.05;106557;1310;138521;-68
2022/10/16 01:50:25;;;;;;;19.50;14.30;;;;;;;13.09;76.70;98634.98;106737;1302;22084;-68
2022/10/16 01:52:55;;;;;;;20.50;14.60;;;;;;;13.09;76.79;98639.70;106437;1310;138460;-68
2022/10/16 01:55:29;;;;;;;19.30;13.80;;;;;;;13.09;76.52;98639.92;106543;1310;22122;-68
2022/10/16 01:57:59;;;;;;;18.70;13.70;;;;;;;13.09;76.24;98634.83;106551;1310;22930;-68
2022/10/16 02:00:27;;;;;;;19.00;14.00;;;;;;;13.09;76.19;98641.67;106411;1299;138308;-68
2022/10/16 02:02:57;;;;;;;18.10;13.50;;;;;;;13.09;76.21;98642.59;106684;1293;22842;-68
2022/10/16 02:05:27;;;;;;;20.70;14.40;;;;;;;13.10;76.02;98646.92;106554;1310;138719;-68
2022/10/16 02:07:54;;;;;;;18.50;13.60;;;;;;;13.11;76.10;98640.48;106666;1307;22062;-68
2022/10/16 02:10:23;;;;;;;18.10;13.90;;;;;;;13.12;76.15;98639.95;106602;1295;22714;-68
2022/10/16 02:13:00;;;;;;;17.70;13.50;;;;;;;13.13;76.17;98642.95;106478;1310;138366;-68
2022/10/16 02:15:27;;;;;;;18.00;13.50;;;;;;;13.12;76.47;98642.63;106634;1310;22194;-68
2022/10/16 02:17:54;;;;;;;22.10;13.30;;;;;;;13.12;76.67;98642.46;106508;1304;138444;-68
2022/10/16 02:20:32;;;;;;;19.30;13.60;;;;;;;13.12;76.55;98641.59;106533;1299;22113;-68
2022/10/16 02:23:01;;;;;;;17.50;13.50;;;;;;;13.11;76.49;98640.05;106541;1310;138556;-68
2022/10/16 02:25:36;;;;;;;19.40;13.70;;;;;;;13.10;76.30;98643.80;106944;1285;21924;-68
2022/10/16 02:28:09;;;;;;;17.60;12.60;;;;;;;13.09;76.28;98643.36;106689;1310;22054;-68
2022/10/16 02:30:44;;;;;;;18.30;14.00;;;;;;;13.07;76.42;98646.52;106497;1310;138506;-68
2022/10/16 02:33:16;;;;;;;19.00;13.80;;;;;;;13.07;76.43;98646.95;106618;1310;22076;-68
2022/10/16 02:35:45;;;;;;;20.30;14.30;;;;;;;13.07;76.58;98650.99;106488;1309;138574;-68
2022/10/16 02:38:14;;;;;;;20.80;14.50;;;;;;;13.06;76.68;98647.80;106593;1295;22979;-68
2022/10/16 02:40:42;;;;;;;21.40;15.30;;;;;;;13.05;76.54;98649.21;106858;1280;22893;-68
2022/10/16 02:43:09;;;;;;;19.60;14.30;;;;;;;13.04;76.69;98653.04;106487;1310;138125;-69
2022/10/16 02:45:36;;;;;;;22.60;15.60;;;;;;;13.03;76.67;98654.98;106625;1310;22173;-68
2022/10/16 02:48:03;;;;;;;23.20;14.50;;;;;;;13.00;76.75;98652.99;106513;1291;138913;-68
2022/10/16 02:50:30;;;;;;;21.90;14.90;;;;;;;12.99;76.87;98649.20;106825;1287;22202;-68
2022/10/16 02:52:57;;;;;;;20.30;14.90;;;;;;;12.98;76.81;98646.19;106443;1310;138661;-68
2022/10/16 02:55:24;;;;;;;20.90;14.20;;;;;;;12.94;76.64;98645.11;106814;1302;22108;-68
2022/10/16 02:57:51;;;;;;;22.30;14.40;;;;;;;12.91;76.79;98644.46;106553;1310;23011;-68
2022/10/16 03:00:18;;;;;;;19.30;14.30;;;;;;;12.87;76.94;98646.61;106703;1287;138366;-68
2022/10/16 03:02:44;;;;;;;19.30;14.00;;;;;;;12.84;76.84;98652.75;106575;1310;22814;-68
2022/10/16 03:05:11;;;;;;;21.30;14.90;;;;;;;12.81;76.92;98656.59;106742;1302;138509;-68
2022/10/16 03:07:38;;;;;;;31.50;19.50;;;;;;;12.77;77.39;98654.56;106545;1303;22224;-68
2022/10/16 03:10:06;;;;;;;33.60;20.90;;;;;;;12.72;78.54;98658.35;106536;1296;22147;-68
2022/10/16 03:12:33;;;;;;;34.60;20.40;;;;;;;12.69;78.97;98657.92;106718;1303;138382;-68
2022/10/16 03:14:59;;;;;;;31.10;20.80;;;;;;;12.66;79.20;98657.02;106502;1310;22900;-68
2022/10/16 03:17:26;;;;;;;30.90;20.10;;;;;;;12.63;79.43;98655.34;106463;1302;138634;-69
2022/10/16 03:19:53;;;;;;;26.70;18.00;;;;;;;12.59;79.59;98654.35;106525;1295;22408;-69
2022/10/16 03:22:20;;;;;;;27.10;17.00;;;;;;;12.54;79.47;98652.98;106528;1296;23397;-69
2022/10/16 03:24:47;;;;;;;20.60;15.50;;;;;;;12.48;79.25;98655.19;106425;1309;138564;-68
2022/10/16 03:27:14;;;;;;;25.30;16.50;;;;;;;12.42;78.95;98654.45;106544;1310;22321;-68
2022/10/16 03:29:40;;;;;;;21.30;15.40;;;;;;;12.36;79.22;98667.42;106714;1291;138628;-68
2022/10/16 03:32:07;;;;;;;19.90;15.00;;;;;;;12.30;79.12;98667.07;106535;1295;22197;-68
2022/10/16 03:34:34;;;;;;;22.90;16.30;;;;;;;12.26;79.05;98672.42;106558;1310;22110;-69
2022/10/16 03:37:01;;;;;;;26.00;15.70;;;;;;;12.23;79.29;98675.59;106443;1310;138334;-68
2022/10/16 03:39:28;;;;;;;23.60;16.30;;;;;;;12.20;79.31;98682.05;106811;1294;22269;-68
2022/10/16 03:41:55;;;;;;;24.70;17.80;;;;;;;12.18;79.49;98683.16;106448;1295;138617;-68
2022/10/16 03:44:22;;;;;;;24.90;17.90;;;;;;;12.13;79.65;98689.48;106569;1307;22122;-68
2022/10/16 03:46:48;;;;;;;27.40;19.90;;;;;;;12.11;79.69;98690.76;106451;1310;138596;-68
2022/10/16 03:49:15;;;;;;;29.10;20.80;;;;;;;12.09;79.87;98693.73;106559;1304;22109;-68
2022/10/16 03:51:42;;;;;;;29.60;21.80;;;;;;;12.08;80.39;98700.09;106533;1295;22112;-68
2022/10/16 03:54:10;;;;;;;30.00;20.10;;;;;;;12.07;80.45;98710.52;106439;1310;138512;-68
2022/10/16 03:56:37;;;;;;;31.50;20.20;;;;;;;12.07;80.66;98716.14;106535;1297;22138;-68
2022/10/16 03:59:04;;;;;;;32.70;19.80;;;;;;;12.07;80.67;98710.89;106700;1291;138743;-68
2022/10/16 04:01:31;;;;;;;29.90;19.10;;;;;;;12.07;81.05;98711.11;106559;1302;22361;-68
2022/10/16 04:03:58;;;;;;;26.80;18.90;;;;;;;12.08;81.27;98706.20;106602;1310;22151;-68
2022/10/16 04:06:25;;;;;;;27.20;18.50;;;;;;;12.08;81.36;98711.14;106470;1310;138460;-69
2022/10/16 04:08:51;;;;;;;24.30;17.70;;;;;;;12.08;81.34;98712.10;106582;1310;22394;-68
2022/10/16 04:11:18;;;;;;;24.20;16.50;;;;;;;12.07;81.64;98713.13;106488;1309;138750;-69
2022/10/16 04:13:45;;;;;;;22.00;15.80;;;;;;;12.05;81.47;98714.31;106554;1310;22200;-68
2022/10/16 04:16:12;;;;;;;23.10;15.80;;;;;;;12.04;81.48;98717.29;106518;1313;22784;-68
2022/10/16 04:18:39;;;;;;;24.00;15.90;;;;;;;12.03;81.55;98718.64;106716;1284;138488;-68
2022/10/16 04:21:06;;;;;;;20.60;14.40;;;;;;;12.03;81.42;98715.19;106794;1291;23051;-69
2022/10/16 04:23:33;;;;;;;22.20;15.20;;;;;;;12.04;81.38;98719.13;106481;1310;138361;-68
2022/10/16 04:26:00;;;;;;;18.40;13.90;;;;;;;12.03;81.25;98716.45;106600;1310;23004;-69
2022/10/16 04:28:27;;;;;;;22.10;16.00;;;;;;;12.02;81.34;98716.59;106860;1302;22333;-68
2022/10/16 04:30:54;;;;;;;20.30;14.30;;;;;;;12.02;81.24;98717.79;106519;1310;138502;-68
2022/10/16 04:33:21;;;;;;;21.60;15.50;;;;;;;12.00;81.36;98718.30;106536;1297;22144;-68
2022/10/16 04:35:48;;;;;;;21.60;14.80;;;;;;;11.97;81.13;98722.58;106440;1310;138612;-68
2022/10/16 04:38:15;;;;;;;21.30;14.60;;;;;;;11.92;81.04;98724.52;106845;1284;22684;-68
2022/10/16 04:40:42;;;;;;;21.80;14.20;;;;;;;11.89;81.15;98722.16;106542;1311;22200;-68
2022/10/16 04:43:10;;;;;;;21.30;14.50;;;;;;;11.86;81.10;98726.13;106728;1302;138244;-69
2022/10/16 04:45:37;;;;;;;22.30;14.20;;;;;;;11.82;81.19;98721.48;106509;1311;22249;-68
2022/10/16 04:48:04;;;;;;;20.70;13.80;;;;;;;11.77;81.22;98720.91;106520;1310;139022;-68
2022/10/16 04:50:30;;;;;;;20.20;14.20;;;;;;;11.73;81.38;98727.55;106602;1305;22190;-68
2022/10/16 04:53:07;;;;;;;17.90;13.30;;;;;;;11.69;80.97;98727.20;106320;1298;138516;-68
2022/10/16 04:55:33;;;;;;;20.50;13.70;;;;;;;11.66;81.48;98731.39;106478;1304;22283;-67
2022/10/16 04:58:00;;;;;;;20.80;15.00;;;;;;;11.61;81.18;98731.80;106826;1297;22959;-68
2022/10/16 05:00:27;;;;;;;21.80;15.30;;;;;;;11.58;81.14;98731.96;106333;1312;138834;-68
2022/10/16 05:02:54;;;;;;;23.30;15.80;;;;;;;11.55;81.10;98734.64;106518;1299;22150;-68
2022/10/16 05:05:21;;;;;;;22.40;16.80;;;;;;;11.52;81.43;98739.62;106323;1311;138597;-68
2022/10/16 05:07:49;;;;;;;24.80;14.90;;;;;;;11.51;81.28;98741.23;106519;1310;22299;-68
2022/10/16 05:10:16;;;;;;;26.50;16.10;;;;;;;11.50;81.60;98739.63;106804;1289;22176;-68
2022/10/16 05:12:44;;;;;;;21.00;15.90;;;;;;;11.49;81.84;98736.70;106660;1289;138408;-68
2022/10/16 05:15:11;;;;;;;23.90;15.70;;;;;;;11.48;82.02;98737.45;106557;1306;22192;-68
2022/10/16 05:17:38;;;;;;;20.10;15.00;;;;;;;11.46;81.94;98740.09;106396;1309;139018;-68
2022/10/16 05:20:05;;;;;;;25.40;15.50;;;;;;;11.44;82.28;98732.91;106521;1310;22170;-68
2022/10/16 05:22:32;;;;;;;20.60;14.00;;;;;;;11.42;81.85;98736.16;106457;1294;22254;-67
2022/10/16 05:24:59;;;;;;;22.50;16.00;;;;;;;11.42;82.14;98735.81;106411;1312;138399;-68
2022/10/16 05:27:25;;;;;;;22.40;16.20;;;;;;;11.41;82.36;98741.45;106508;1311;22204;-68
2022/10/16 05:29:52;;;;;;;20.70;15.60;;;;;;;11.40;82.33;98742.05;106373;1305;138393;-68
2022/10/16 05:32:19;;;;;;;21.70;15.40;;;;;;;11.41;82.41;98744.47;106463;1313;22900;-68
2022/10/16 05:34:46;;;;;;;22.70;16.30;;;;;;;11.43;82.42;98748.44;106522;1285;22197;-68
2022/10/16 05:37:13;;;;;;;20.30;15.60;;;;;;;11.44;82.21;98753.36;106818;1302;22213;-68
2022/10/16 05:39:40;;;;;;;20.90;15.60;;;;;;;11.45;82.48;98750.77;106794;1278;22279;-68
2022/10/16 05:42:06;;;;;;;23.30;16.30;;;;;;;11.48;82.49;98748.40;106393;1310;138512;-68
2022/10/16 05:44:33;;;;;;;21.80;15.00;;;;;;;11.49;82.86;98749.58;106485;1296;22074;-68
2022/10/16 05:47:00;;;;;;;20.60;14.40;;;;;;;11.51;83.00;98746.05;106442;1310;138626;-68
2022/10/16 05:49:27;;;;;;;22.10;14.80;;;;;;;11.53;83.30;98744.85;106507;1310;22154;-69
2022/10/16 05:51:54;;;;;;;20.30;14.10;;;;;;;11.56;83.42;98751.23;106508;1299;23067;-68
2022/10/16 05:54:21;;;;;;;22.70;14.90;;;;;;;11.60;83.38;98747.83;106371;1302;138302;-68
2022/10/16 05:56:47;;;;;;;18.70;12.50;;;;;;;11.66;83.58;98749.30;106503;1304;22980;-68
2022/10/16 05:59:14;;;;;;;18.80;14.10;;;;;;;11.71;83.69;98747.95;106438;1310;138588;-68
2022/10/16 06:01:41;;;;;;;19.70;12.70;;;;;;;11.75;83.35;98753.06;106632;1310;22203;-68
2022/10/16 06:04:09;;;;;;;18.60;13.40;;;;;;;11.81;83.45;98753.87;106580;1302;22940;-68
2022/10/16 06:06:36;;;;;;;25.60;18.20;;;;;;;11.85;83.44;98754.44;106460;1310;138571;-68
2022/10/16 06:09:04;;;;;;;21.90;15.70;;;;;;;11.89;83.67;98763.41;106850;1292;22176;-68
2022/10/16 06:11:32;;;;;;;26.20;18.80;;;;;;;11.86;82.43;98772.63;106404;1305;139733;-68
2022/10/16 06:14:06;;;;;;;28.10;18.40;;;;;;;11.78;82.04;98778.32;106593;1295;22188;-68
2022/10/16 06:16:37;;;;;;;25.90;17.70;;;;;;;11.67;82.03;98785.81;106660;1310;22238;-68
2022/10/16 06:19:06;;;;;;;25.50;18.90;;;;;;;11.58;82.31;98787.83;106454;1305;140821;-68
2022/10/16 06:21:33;;;;;;;30.90;19.10;;;;;;;11.52;82.74;98788.52;106620;1310;23143;-68
2022/10/16 06:23:59;;;;;;;26.20;17.50;;;;;;;11.50;82.89;98790.14;106494;1309;138642;-68
2022/10/16 06:26:29;;;;;;;23.90;17.70;;;;;;;11.48;83.22;98794.09;106557;1310;22163;-68
2022/10/16 06:28:58;;;;;;;22.00;17.20;;;;;;;11.49;83.78;98796.00;106731;1302;138562;-68
2022/10/16 06:31:27;;;;;;;28.90;17.00;;;;;;;11.54;83.85;98801.77;106508;1313;22340;-69
2022/10/16 06:33:55;;;;;;;23.80;16.00;;;;;;;11.60;83.74;98810.73;106516;1296;22237;-68
2022/10/16 06:36:22;;;;;;;22.00;15.90;;;;;;;11.70;83.89;98813.48;106811;1282;138490;-68
2022/10/16 06:38:49;;;;;;;23.20;15.70;;;;;;;11.80;84.02;98817.94;106664;1310;22293;-68
2022/10/16 06:41:18;;;;;;;22.80;15.30;;;;;;;11.92;84.26;98821.02;106544;1302;139225;-68
2022/10/16 06:43:46;;;;;;;;;;;;;;;12.00;83.88;98821.71;106547;1310;22465;-68
2022/10/16 06:46:15;;;;;;;21.20;14.40;;;;;;;12.07;83.97;98823.42;106821;1303;22875;-68
2022/10/16 06:48:42;;;;;;;;;;;;;;;12.14;83.83;98834.78;106394;1306;138452;-68
2022/10/16 06:51:14;;;;;;;22.20;15.50;;;;;;;12.19;84.43;98838.20;106495;1310;22322;-68
2022/10/16 06:53:48;;;;;;;22.70;16.50;;;;;;;12.22;84.75;98842.75;106452;1310;138368;-68
2022/10/16 06:56:21;;;;;;;22.20;17.00;;;;;;;12.28;84.85;98843.61;106642;1294;22909;-69
2022/10/16 06:58:49;;;;;;;20.50;15.90;;;;;;;12.34;84.77;98846.33;106822;1300;139324;-69
2022/10/16 07:01:18;;;;;;;21.80;16.20;;;;;;;12.41;84.41;98844.88;106941;1288;22079;-68
2022/10/16 07:03:46;;;;;;;21.80;16.10;;;;;;;12.49;84.20;98844.99;106595;1310;22197;-68
2022/10/16 07:06:16;;;;;;;23.50;16.00;;;;;;;12.60;84.46;98843.91;106475;1295;138400;-68
2022/10/16 07:08:45;;;;;;;24.90;16.60;;;;;;;12.70;84.28;98844.84;106584;1310;22088;-68
2022/10/16 07:11:14;;;;;;;21.00;16.60;;;;;;;12.77;84.00;98843.91;106769;1285;138457;-68
2022/10/16 07:13:43;;;;;;;22.10;16.20;;;;;;;12.87;83.99;98851.49;106539;1278;22240;-68
2022/10/16 07:16:12;;;;;;;22.30;16.80;;;;;;;12.96;83.90;98847.69;106662;1309;22134;-68
2022/10/16 07:18:40;;;;;;;22.30;16.60;;;;;;;13.04;83.55;98843.70;106599;1309;138630;-68
2022/10/16 07:21:13;;;;;;;22.40;15.60;;;;;;;13.10;83.45;98847.34;106631;1309;22272;-68
2022/10/16 07:23:41;;;;;;;20.70;15.60;;;;;;;13.15;83.22;98848.14;106509;1310;138361;-68
2022/10/16 07:26:09;;;;;;;23.50;16.10;;;;;;;13.19;83.21;98851.56;106592;1296;22270;-67
2022/10/16 07:28:36;;;;;;;19.90;15.70;;;;;;;13.27;83.01;98851.35;106416;1310;22211;-69
2022/10/16 07:31:11;;;;;;;22.30;16.30;;;;;;;13.35;82.87;98847.77;106492;1310;138132;-68
2022/10/16 07:33:39;;;;;;;20.20;14.80;;;;;;;13.44;82.74;98849.80;106605;1309;22230;-68
2022/10/16 07:36:06;;;;;;;22.30;15.80;;;;;;;13.53;82.58;98851.98;106507;1310;138493;-68
2022/10/16 07:38:34;;;;;;;20.60;15.30;;;;;;;13.63;82.53;98849.83;106680;1304;22058;-68
2022/10/16 07:41:04;;;;;;;19.80;14.20;;;;;;;13.73;82.40;98846.70;106576;1310;139515;-68
2022/10/16 07:43:32;;;;;;;15.40;12.90;;;;;;;13.82;81.93;98851.52;106890;1303;22162;-68
2022/10/16 07:46:00;;;;;;;17.30;13.20;;;;;;;13.90;81.50;98852.16;106582;1295;22162;-68
2022/10/16 07:48:28;;;;;;;17.30;12.50;;;;;;;13.99;81.25;98854.05;106489;1297;138360;-68
2022/10/16 07:51:00;;;;;;;17.80;12.60;;;;;;;14.05;80.74;98858.27;106801;1303;22082;-68
2022/10/16 07:53:27;;;;;;;15.30;11.90;;;;;;;14.14;80.61;98858.48;106475;1310;138540;-68
2022/10/16 07:55:59;;;;;;;17.50;12.80;;;;;;;14.23;80.59;98856.97;106586;1288;22519;-68
2022/10/16 07:58:27;;;;;;;12.90;11.20;;;;;;;14.32;80.29;98859.97;106667;1310;22236;-68
2022/10/16 08:00:55;;;;;;;20.40;12.10;;;;;;;14.40;79.68;98860.59;106557;1310;138468;-68
2022/10/16 08:03:23;;;;;;;15.90;11.90;;;;;;;14.47;79.30;98859.94;106956;1303;22314;-69
2022/10/16 08:05:51;;;;;;;18.70;11.80;;;;;;;14.55;78.50;98863.20;106530;1295;138368;-68
2022/10/16 08:08:18;;;;;;;15.60;11.90;;;;;;;14.62;78.27;98866.13;106635;1302;22255;-68
2022/10/16 08:10:46;;;;;;;16.30;11.50;;;;;;;14.69;78.00;98869.74;106860;1298;22095;-69
2022/10/16 08:13:14;;;;;;;13.10;11.10;;;;;;;14.75;77.89;98871.66;106479;1302;138219;-68
2022/10/16 08:15:43;;;;;;;15.10;11.10;;;;;;;14.82;77.61;98872.55;106893;1295;22334;-68
2022/10/16 08:18:11;;;;;;;16.10;11.50;;;;;;;14.89;77.42;98872.38;106555;1310;138580;-68
2022/10/16 08:20:39;;;;;;;16.10;10.70;;;;;;;14.95;77.07;98868.25;106681;1309;22103;-68
2022/10/16 08:23:06;;;;;;;14.40;10.60;;;;;;;15.04;76.65;98877.69;106790;1302;138457;-68
2022/10/16 08:25:37;;;;;;;12.70;9.50;;;;;;;15.14;76.49;98875.84;106681;1308;22196;-68
2022/10/16 08:28:05;;;;;;;13.70;10.30;;;;;;;15.24;76.05;98875.83;106564;1295;22126;-68
2022/10/16 08:30:32;;;;;;;13.40;9.70;;;;;;;15.32;75.57;98873.74;106504;1310;138336;-68
2022/10/16 08:32:59;;;;;;;10.20;8.10;;;;;;;15.41;75.05;98874.99;106521;1304;22195;-68
2022/10/16 08:35:26;;;;;;;12.60;8.70;;;;;;;15.50;73.80;98875.77;106496;1310;138683;-68
2022/10/16 08:37:54;;;;;;;9.20;8.10;;;;;;;15.62;74.07;98875.33;106588;1310;22101;-69
2022/10/16 08:40:32;;;;;;;11.20;8.50;;;;;;;15.74;73.88;98878.35;106655;1302;22080;-68
2022/10/16 08:43:23;;;;;;;11.00;8.80;;;;;;;15.92;73.24;98878.33;106830;1303;138266;-69
2022/10/16 08:45:58;;;;;;;11.50;8.40;;;;;;;16.18;72.24;98881.40;106665;1310;22093;-68
2022/10/16 08:48:58;;;;;;;9.30;7.70;;;;;;;16.42;71.26;98886.02;106451;1295;138356;-69
2022/10/16 08:51:35;;;;;;;11.30;7.60;;;;;;;16.65;70.95;98887.75;106610;1285;22336;-68
2022/10/16 08:54:03;;;;;;;11.70;8.40;;;;;;;16.82;70.68;98884.41;106530;1310;138291;-68
2022/10/16 08:56:31;;;;;;;11.50;8.20;;;;;;;16.98;69.81;98886.23;106559;1294;22401;-69
2022/10/16 08:58:59;;;;;;;10.90;7.50;;;;;;;17.10;69.14;98887.20;106489;1310;138444;-68
2022/10/16 09:01:53;;;;;;;11.20;7.80;;;;;;;17.22;68.81;98887.23;106563;1310;22409;-69
2022/10/16 09:04:38;;;;;;;10.20;7.70;;;;;;;17.35;68.32;98889.02;106904;1303;22096;-68
2022/10/16 09:07:23;;;;;;;11.10;7.30;;;;;;;17.44;67.70;98888.23;106528;1310;138176;-68
2022/10/16 09:10:08;;;;;;;12.60;7.60;;;;;;;17.53;67.42;98892.61;106870;1285;22187;-68
2022/10/16 09:12:54;;;;;;;8.90;7.10;;;;;;;17.61;67.11;98897.55;106507;1310;138180;-68
2022/10/16 09:15:27;;;;;;;10.00;7.10;;;;;;;17.67;67.17;98894.61;106639;1306;22323;-69
2022/10/16 09:18:09;;;;;;;10.00;7.60;;;;;;;17.71;67.00;98895.10;106519;1302;138201;-69
2022/10/16 09:20:42;;;;;;;11.20;7.50;;;;;;;17.76;66.83;98898.44;106614;1310;22113;-69
2022/10/16 09:23:14;;;;;;;11.30;7.90;;;;;;;17.83;66.75;98898.25;106795;1288;138630;-69
2022/10/16 09:25:47;;;;;;;15.30;8.10;;;;;;;17.93;66.78;98900.15;106688;1310;22264;-68
2022/10/16 09:28:16;;;;;;;9.90;6.80;;;;;;;18.07;66.51;98897.55;106600;1295;22080;-69
2022/10/16 09:30:43;;;;;;;7.40;6.70;;;;;;;18.21;66.13;98899.35;106520;1309;138227;-68
2022/10/16 09:33:13;;;;;;;9.60;6.90;;;;;;;18.31;65.45;98899.94;106871;1295;22015;-68
2022/10/16 09:35:43;;;;;;;7.80;6.60;;;;;;;18.38;64.70;98895.05;106517;1304;137385;-68
2022/10/16 09:38:24;;;;;;;10.90;7.00;;;;;;;18.44;64.35;98896.33;106622;1296;22152;-69
2022/10/16 09:40:52;;;;;;;11.40;7.20;;;;;;;18.52;64.30;98897.39;106580;1309;137718;-68
2022/10/16 09:43:30;;;;;;;12.20;7.40;;;;;;;18.59;64.33;98896.73;106685;1309;22150;-69
2022/10/16 09:46:06;;;;;;;10.90;7.40;;;;;;;18.66;64.03;98895.02;106666;1307;22826;-68
2022/10/16 09:48:38;;;;;;;7.90;6.50;;;;;;;18.68;63.83;98900.98;106509;1305;137522;-69
2022/10/16 09:51:06;;;;;;;8.80;7.00;;;;;;;18.68;63.64;98897.21;106622;1303;22100;-68
2022/10/16 09:53:45;;;;;;;8.40;6.40;;;;;;;18.69;63.65;98895.61;106435;1310;137559;-68
2022/10/16 09:56:23;;;;;;;9.60;6.70;;;;;;;18.69;63.77;98897.87;106608;1310;22166;-68
2022/10/16 09:58:55;;;;;;;11.10;6.60;;;;;;;18.70;63.92;98903.11;106494;1302;137703;-68
2022/10/16 10:01:28;;;;;;;13.50;6.70;;;;;;;18.74;64.09;98900.42;106686;1310;23117;-68
2022/10/16 10:04:00;;;;;;;10.10;7.30;;;;;;;18.82;64.37;98904.58;106808;1303;22191;-68
2022/10/16 10:06:34;;;;;;;8.70;6.70;;;;;;;18.90;63.93;98905.73;106567;1302;137742;-68
2022/10/16 10:09:14;;;;;;;9.80;7.00;;;;;;;18.94;63.93;98905.10;106617;1299;22286;-69
2022/10/16 10:11:44;;;;;;;7.50;6.40;;;;;;;18.99;62.99;98905.23;106514;1309;137535;-68
2022/10/16 10:14:19;;;;;;;7.40;6.60;;;;;;;19.03;63.01;98899.88;106608;1310;22076;-69
2022/10/16 10:16:48;;;;;;;11.20;6.60;;;;;;;19.09;62.68;98903.14;106598;1310;22234;-69
2022/10/16 10:19:23;;;;;;;8.50;6.70;;;;;;;19.16;62.21;98904.40;106614;1284;22782;-68
2022/10/16 10:21:51;;;;;;;9.20;6.70;;;;;;;19.25;62.04;98907.46;106867;1303;22167;-68
2022/10/16 10:24:19;;;;;;;11.00;6.50;;;;;;;19.32;62.61;98909.22;106465;1312;137317;-68
2022/10/16 10:27:00;;;;;;;8.20;6.90;;;;;;;19.39;62.13;98909.65;106540;1312;22320;-69
2022/10/16 10:29:40;;;;;;;9.10;6.90;;;;;;;19.46;61.55;98910.61;106668;1299;137648;-69
2022/10/16 10:32:32;;;;;;;8.80;6.40;;;;;;;19.53;61.63;98904.58;106832;1300;22158;-68
2022/10/16 10:35:05;;;;;;;6.70;5.90;;;;;;;19.60;61.39;98906.49;106715;1296;137559;-68
2022/10/16 10:37:38;;;;;;;8.60;6.60;;;;;;;19.67;61.70;98904.14;106544;1312;22947;-69
2022/10/16 10:40:13;;;;;;;9.90;6.30;;;;;;;19.83;62.05;98904.15;106579;1299;22178;-69
2022/10/16 10:42:57;;;;;;;9.70;6.20;;;;;;;19.96;61.40;98898.52;106511;1309;137494;-68
2022/10/16 10:45:28;;;;;;;8.10;6.20;;;;;;;20.07;60.70;98900.97;106620;1310;22105;-68
2022/10/16 10:48:09;;;;;;;7.50;5.80;;;;;;;20.15;60.06;98901.41;106499;1310;137351;-69
2022/10/16 10:50:52;;;;;;;7.50;6.00;;;;;;;20.22;60.20;98900.38;106549;1295;22863;-68
2022/10/16 10:53:35;;;;;;;9.60;6.20;;;;;;;20.26;59.57;98893.69;106438;1311;137473;-68
2022/10/16 10:56:55;;;;;;;8.70;5.80;;;;;;;20.32;59.07;98895.82;106525;1313;23062;-68
2022/10/16 10:59:52;;;;;;;7.40;5.60;;;;;;;20.36;59.33;98890.84;106422;1299;137758;-68
2022/10/16 11:02:28;;;;;;;7.10;5.70;;;;;;;20.37;58.54;98893.80;106844;1288;22172;-68
2022/10/16 11:05:21;;;;;;;10.30;6.20;;;;;;;20.36;58.51;98887.14;106696;1296;137456;-68
2022/10/16 11:07:59;;;;;;;7.00;5.50;;;;;;;20.34;58.40;98887.16;106325;1312;197153;-69
2022/10/16 11:10:54;;;;;;;6.30;5.50;;;;;;;20.34;59.05;98887.16;106511;1295;22897;-69
2022/10/16 11:13:38;;;;;;;8.70;6.10;;;;;;;20.35;59.47;98887.92;106729;1297;22770;-68
2022/10/16 11:16:20;;;;;;;9.00;5.70;;;;;;;20.35;59.23;98885.92;106539;1311;22797;-70
2022/10/16 11:19:13;;;;;;;7.10;5.90;;;;;;;20.33;59.23;98887.83;106442;1312;137367;-69
2022/10/16 11:21:56;;;;;;;8.90;6.00;;;;;;;20.32;59.22;98889.08;105831;1318;22170;-69
2022/10/16 11:24:36;;;;;;;8.30;5.80;;;;;;;20.28;58.86;98887.13;106099;1308;137403;-69
2022/10/16 11:27:08;;;;;;;7.30;5.80;;;;;;;20.25;59.47;98888.16;105868;1318;22953;-69